Time;durP1;ratioP1;P1;durP2;ratioP2;P2;SDS_P1;SDS_P2;PMS_P1;PMS_P2;Temp;Humidity;BMP_temperature;BMP_pressure;BME280_temperature;BME280_humidity;BME280_pressure;Samples;Min_cycle;Max_cycle;Signal;HPM_P1;HPM_P2
2022/10/12 00:00:32;;;;;;;17.25;3.30;;;9.60;99.90;;;;;;5052922;28;20100;-68
2022/10/12 00:02:58;;;;;;;27.00;3.33;;;9.70;99.90;;;;;;5033691;28;20030;-67
2022/10/12 00:05:24;;;;;;;27.83;4.03;;;9.70;99.90;;;;;;5032879;28;20033;-67
2022/10/12 00:07:49;;;;;;;11.00;1.95;;;9.70;99.90;;;;;;5049788;28;20028;-67
2022/10/12 00:10:16;;;;;;;21.23;2.58;;;9.70;99.90;;;;;;5055846;28;20037;-67
2022/10/12 00:12:41;;;;;;;14.82;3.00;;;9.70;99.90;;;;;;5057406;28;20025;-67
2022/10/12 00:15:07;;;;;;;12.80;2.80;;;9.80;99.90;;;;;;5044152;28;20377;-67
2022/10/12 00:17:33;;;;;;;19.92;2.38;;;9.80;99.90;;;;;;5036825;28;20105;-67
2022/10/12 00:19:58;;;;;;;16.52;3.83;;;9.80;99.90;;;;;;5047512;28;20023;-68
2022/10/12 00:22:24;;;;;;;15.73;2.80;;;9.80;99.90;;;;;;5057408;28;20082;-67
2022/10/12 00:24:52;;;;;;;24.80;4.10;;;9.80;99.90;;;;;;5057043;28;20079;-67
2022/10/12 00:27:17;;;;;;;13.43;2.72;;;9.80;99.90;;;;;;5056685;28;20112;-67
2022/10/12 00:29:43;;;;;;;14.40;2.40;;;9.80;99.90;;;;;;5057244;28;20079;-67
2022/10/12 00:32:09;;;;;;;17.77;3.20;;;9.80;99.90;;;;;;5039211;28;20481;-67
2022/10/12 00:34:34;;;;;;;17.13;3.45;;;9.80;99.90;;;;;;5056875;28;20071;-67
2022/10/12 00:37:00;;;;;;;9.60;3.20;;;9.80;99.90;;;;;;5056400;28;20017;-67
2022/10/12 00:39:26;;;;;;;25.65;4.22;;;9.80;99.90;;;;;;5056829;28;20029;-67
2022/10/12 00:41:51;;;;;;;30.83;4.13;;;9.80;99.90;;;;;;5056733;28;20021;-67
2022/10/12 00:44:37;;;;;;;24.88;3.60;;;9.90;99.90;;;;;;5056821;28;20025;-67
2022/10/12 00:47:14;;;;;;;27.05;3.70;;;9.90;99.90;;;;;;5056832;28;20025;-67
2022/10/12 00:49:41;;;;;;;26.25;3.63;;;9.90;99.90;;;;;;5056692;28;20017;-68
2022/10/12 00:52:10;;;;;;;28.08;3.50;;;9.90;99.90;;;;;;5056228;28;20389;-67
2022/10/12 00:54:45;;;;;;;20.73;2.88;;;9.90;99.90;;;;;;5056300;28;20506;-67
2022/10/12 00:57:13;;;;;;;23.00;3.80;;;9.80;99.90;;;;;;5056804;28;20163;-67
2022/10/12 00:59:48;;;;;;;19.52;3.38;;;9.80;99.90;;;;;;5056455;28;20040;-67
2022/10/12 01:02:14;;;;;;;20.13;3.15;;;9.70;99.90;;;;;;5056343;28;20016;-67
2022/10/12 01:04:40;;;;;;;15.63;3.33;;;9.60;99.90;;;;;;5055762;28;20465;-68
2022/10/12 01:07:06;;;;;;;18.23;2.97;;;9.40;99.90;;;;;;5056223;28;20079;-67
2022/10/12 01:09:32;;;;;;;20.27;3.00;;;9.20;99.90;;;;;;5056524;28;20412;-67
2022/10/12 01:11:58;;;;;;;18.63;4.00;;;9.10;99.90;;;;;;5056187;28;20492;-67
2022/10/12 01:14:24;;;;;;;16.60;3.92;;;9.00;99.90;;;;;;5055705;28;20033;-67
2022/10/12 01:17:17;;;;;;;12.38;3.50;;;8.90;99.90;;;;;;5056194;28;20385;-67
2022/10/12 01:19:42;;;;;;;36.22;5.25;;;8.80;99.90;;;;;;5005176;28;20036;-68
2022/10/12 01:22:13;;;;;;;33.28;5.90;;;8.70;99.90;;;;;;5055520;28;20079;-67
2022/10/12 01:24:51;;;;;;;25.23;4.57;;;8.70;99.90;;;;;;5056265;28;20017;-67
2022/10/12 01:27:29;;;;;;;19.95;3.55;;;8.60;99.90;;;;;;5056187;28;20038;-67
2022/10/12 01:30:03;;;;;;;14.50;3.58;;;8.60;99.90;;;;;;5056188;28;20465;-67
2022/10/12 01:32:35;;;;;;;30.48;4.60;;;8.50;99.90;;;;;;5055672;28;20032;-67
2022/10/12 01:35:22;;;;;;;25.23;4.25;;;8.50;99.90;;;;;;5055835;28;20021;-67
2022/10/12 01:38:14;;;;;;;24.42;4.13;;;8.50;99.90;;;;;;5056010;28;20028;-67
2022/10/12 01:41:16;;;;;;;31.10;5.03;;;8.40;99.90;;;;;;5055761;28;20036;-67
2022/10/12 01:43:43;;;;;;;23.48;3.72;;;8.40;99.90;;;;;;5029995;28;20041;-67
2022/10/12 01:46:15;;;;;;;21.23;3.85;;;8.30;99.90;;;;;;5055593;28;20032;-67
2022/10/12 01:48:43;;;;;;;21.70;3.97;;;8.30;99.90;;;;;;5055329;28;20491;-67
2022/10/12 01:51:11;;;;;;;14.38;3.85;;;8.30;99.90;;;;;;5055703;28;20025;-67
2022/10/12 01:53:42;;;;;;;14.45;4.43;;;8.40;99.90;;;;;;5055431;28;20480;-67
2022/10/12 01:56:19;;;;;;;22.52;4.35;;;8.50;99.90;;;;;;5054934;28;20029;-67
2022/10/12 01:59:04;;;;;;;25.70;5.10;;;8.60;99.90;;;;;;5055350;28;20435;-67
2022/10/12 02:01:48;;;;;;;38.67;5.40;;;8.70;99.90;;;;;;5055322;28;20029;-67
2022/10/12 02:04:29;;;;;;;19.58;4.72;;;8.70;99.90;;;;;;5055170;28;20017;-67
2022/10/12 02:07:00;;;;;;;27.20;5.28;;;8.90;99.90;;;;;;5054898;28;20092;-67
2022/10/12 02:09:33;;;;;;;23.52;5.45;;;8.90;99.90;;;;;;5055334;28;20135;-67
2022/10/12 02:12:12;;;;;;;37.47;5.82;;;9.00;99.90;;;;;;5055491;28;20021;-67
2022/10/12 02:14:46;;;;;;;20.75;6.07;;;9.00;99.90;;;;;;5055232;28;20403;-67
2022/10/12 02:17:15;;;;;;;25.65;6.35;;;9.00;99.90;;;;;;5054661;28;20080;-67
2022/10/12 02:19:45;;;;;;;17.65;5.60;;;9.10;99.90;;;;;;5054918;28;20462;-67
2022/10/12 02:22:11;;;;;;;26.50;5.80;;;9.10;99.90;;;;;;5055207;28;20021;-67
2022/10/12 02:24:40;;;;;;;34.13;6.70;;;9.10;99.90;;;;;;5054695;28;20021;-67
2022/10/12 02:27:09;;;;;;;29.85;7.47;;;9.10;99.90;;;;;;5054975;28;20059;-67
2022/10/12 02:29:40;;;;;;;29.58;6.72;;;9.20;99.90;;;;;;5054189;28;20489;-67
2022/10/12 02:32:49;;;;;;;28.27;7.05;;;9.20;99.90;;;;;;5054017;28;20029;-67
2022/10/12 02:35:34;;;;;;;29.23;6.38;;;9.20;99.90;;;;;;5054696;28;20071;-67
2022/10/12 02:38:06;;;;;;;20.25;6.13;;;9.20;99.90;;;;;;5054705;28;20024;-67
2022/10/12 02:40:54;;;;;;;17.55;5.80;;;9.20;99.90;;;;;;5054797;28;20031;-67
2022/10/12 02:43:26;;;;;;;20.83;6.60;;;9.30;99.90;;;;;;5054183;28;20035;-68
2022/10/12 02:45:53;;;;;;;27.38;7.45;;;9.30;99.90;;;;;;5054925;28;20025;-67
2022/10/12 02:48:23;;;;;;;20.05;5.72;;;9.30;99.90;;;;;;5054707;28;20489;-67
2022/10/12 02:50:52;;;;;;;38.03;7.55;;;9.30;99.90;;;;;;5054903;28;20025;-67
2022/10/12 02:53:19;;;;;;;27.40;7.20;;;9.40;99.90;;;;;;5054110;28;20029;-67
2022/10/12 02:55:49;;;;;;;36.40;7.63;;;9.40;99.90;;;;;;5054219;28;20013;-67
2022/10/12 02:58:15;;;;;;;23.08;6.00;;;9.40;99.90;;;;;;5054060;28;20028;-67
2022/10/12 03:00:41;;;;;;;26.70;5.93;;;9.40;99.90;;;;;;5054123;28;20044;-67
2022/10/12 03:03:07;;;;;;;15.55;5.57;;;9.40;99.90;;;;;;5036217;28;20496;-67
2022/10/12 03:05:32;;;;;;;12.95;5.00;;;9.40;99.90;;;;;;5054502;28;20024;-67
2022/10/12 03:07:58;;;;;;;20.13;5.40;;;9.50;99.90;;;;;;5053985;28;20025;-67
2022/10/12 03:10:23;;;;;;;19.08;5.30;;;9.50;99.90;;;;;;5053540;28;20484;-67
2022/10/12 03:12:49;;;;;;;19.73;5.22;;;9.50;99.90;;;;;;5053850;28;20037;-67
2022/10/12 03:15:14;;;;;;;19.15;4.88;;;9.50;99.90;;;;;;5054150;28;20029;-67
2022/10/12 03:17:40;;;;;;;16.70;4.50;;;9.50;99.90;;;;;;5054062;28;20408;-67
2022/10/12 03:20:06;;;;;;;17.85;4.40;;;9.50;99.90;;;;;;5053369;28;20067;-67
2022/10/12 03:22:31;;;;;;;15.25;4.10;;;9.40;99.90;;;;;;5053717;28;20113;-67
2022/10/12 03:24:59;;;;;;;16.50;4.63;;;9.40;99.90;;;;;;5054242;28;20087;-67
2022/10/12 03:27:25;;;;;;;21.20;5.05;;;9.40;99.90;;;;;;5053617;28;20021;-67
2022/10/12 03:29:50;;;;;;;10.98;4.00;;;9.30;99.90;;;;;;5053670;28;20062;-67
2022/10/12 03:32:16;;;;;;;15.15;4.70;;;9.30;99.90;;;;;;5053169;28;20472;-67
2022/10/12 03:34:42;;;;;;;19.48;4.18;;;9.30;99.90;;;;;;5053809;28;20027;-67
2022/10/12 03:37:07;;;;;;;24.85;4.80;;;9.30;99.90;;;;;;5053681;28;20033;-67
2022/10/12 03:39:33;;;;;;;11.43;3.78;;;9.30;99.90;;;;;;5053532;28;20025;-67
2022/10/12 03:41:58;;;;;;;14.00;3.85;;;9.30;99.90;;;;;;5053492;28;20411;-67
2022/10/12 03:44:24;;;;;;;16.65;4.53;;;9.20;99.90;;;;;;5053868;28;20017;-67
2022/10/12 03:46:49;;;;;;;15.55;3.50;;;9.20;99.90;;;;;;5052815;28;20025;-67
2022/10/12 03:49:15;;;;;;;21.40;3.17;;;9.10;99.90;;;;;;5053327;28;20029;-67
2022/10/12 03:51:40;;;;;;;16.00;2.67;;;9.00;99.90;;;;;;5053597;28;20046;-67
2022/10/12 03:54:06;;;;;;;31.50;5.28;;;9.00;99.90;;;;;;5089992;23;20049;-69
2022/10/12 03:56:31;;;;;;;22.85;4.20;;;9.10;99.90;;;;;;5052922;28;20028;-69
2022/10/12 03:58:57;;;;;;;23.60;5.05;;;9.20;99.90;;;;;;5053228;28;20102;-69
2022/10/12 04:01:23;;;;;;;21.42;4.38;;;9.30;99.90;;;;;;5053263;28;20024;-69
2022/10/12 04:03:48;;;;;;;22.50;5.30;;;9.40;99.90;;;;;;5052769;28;20431;-69
2022/10/12 04:06:14;;;;;;;28.08;4.65;;;9.50;99.90;;;;;;5053269;28;20056;-69
2022/10/12 04:08:40;;;;;;;20.45;4.47;;;9.50;99.90;;;;;;5053129;28;20449;-69
2022/10/12 04:11:06;;;;;;;22.90;4.93;;;9.60;99.90;;;;;;5053708;28;20388;-69
2022/10/12 04:13:31;;;;;;;24.20;4.82;;;9.60;99.90;;;;;;5053100;28;20017;-69
2022/10/12 04:16:03;;;;;;;13.60;5.03;;;9.70;99.90;;;;;;5052835;28;20025;-69
2022/10/12 04:18:29;;;;;;;20.35;5.10;;;9.70;99.90;;;;;;5053165;28;20029;-69
2022/10/12 04:20:55;;;;;;;26.55;6.65;;;9.70;99.90;;;;;;5053149;28;20393;-69
2022/10/12 04:23:20;;;;;;;15.63;6.72;;;9.70;99.90;;;;;;5053338;28;20025;-69
2022/10/12 04:25:46;;;;;;;19.75;6.25;;;9.80;99.90;;;;;;5053363;28;20104;-69
2022/10/12 04:28:11;;;;;;;21.55;6.70;;;9.80;99.90;;;;;;5052515;28;20024;-69
2022/10/12 04:30:37;;;;;;;23.73;6.85;;;9.70;99.90;;;;;;5053352;28;20028;-69
2022/10/12 04:33:04;;;;;;;25.08;7.10;;;9.80;99.90;;;;;;5052976;28;20067;-69
2022/10/12 04:35:29;;;;;;;23.90;7.15;;;9.80;99.90;;;;;;5052422;28;20021;-69
2022/10/12 04:37:55;;;;;;;24.35;8.40;;;9.80;99.90;;;;;;5052961;28;20047;-69
2022/10/12 04:40:21;;;;;;;32.03;9.45;;;9.80;99.90;;;;;;5053332;28;20078;-69
2022/10/12 04:42:47;;;;;;;39.50;9.43;;;9.80;99.90;;;;;;5053227;28;20496;-69
2022/10/12 04:45:12;;;;;;;36.40;9.95;;;9.80;99.90;;;;;;5053296;28;20380;-69
2022/10/12 04:47:38;;;;;;;40.33;10.90;;;9.80;99.90;;;;;;5052309;28;20035;-69
2022/10/12 04:50:04;;;;;;;36.33;11.85;;;9.90;99.90;;;;;;5052925;28;20067;-69
2022/10/12 04:52:29;;;;;;;40.38;11.95;;;9.90;99.90;;;;;;5051540;28;20026;-69
2022/10/12 04:54:55;;;;;;;37.58;14.18;;;9.80;99.90;;;;;;5052539;28;20029;-69
2022/10/12 04:57:20;;;;;;;48.60;13.77;;;9.90;99.90;;;;;;5056577;28;20036;-69
2022/10/12 04:59:46;;;;;;;49.65;14.73;;;9.90;99.90;;;;;;5056693;28;20029;-69
2022/10/12 05:02:11;;;;;;;43.17;15.27;;;9.90;99.90;;;;;;5056648;28;20370;-69
2022/10/12 05:04:37;;;;;;;39.30;16.00;;;9.90;99.90;;;;;;5056389;28;20040;-69
2022/10/12 05:07:02;;;;;;;42.53;14.05;;;9.90;99.90;;;;;;5056611;28;20461;-69
2022/10/12 05:09:28;;;;;;;48.40;16.83;;;10.00;99.90;;;;;;5055822;28;20029;-69
2022/10/12 05:11:53;;;;;;;41.65;15.23;;;9.90;99.90;;;;;;5056431;28;20135;-69
2022/10/12 05:14:19;;;;;;;61.03;16.02;;;9.90;99.90;;;;;;5056784;28;20021;-69
2022/10/12 05:16:44;;;;;;;50.10;16.60;;;10.00;99.90;;;;;;5056877;28;20158;-69
2022/10/12 05:19:10;;;;;;;42.20;14.70;;;10.00;99.90;;;;;;5056702;28;20123;-70
2022/10/12 05:21:36;;;;;;;36.90;14.25;;;9.90;99.90;;;;;;5056188;28;20540;-70
2022/10/12 05:24:01;;;;;;;44.50;15.02;;;9.90;99.90;;;;;;5055917;28;20440;-70
2022/10/12 05:26:27;;;;;;;50.17;16.95;;;9.90;99.90;;;;;;5055970;28;20025;-70
2022/10/12 05:28:52;;;;;;;40.55;16.27;;;9.90;99.90;;;;;;5056067;28;20461;-69
2022/10/12 05:31:18;;;;;;;44.55;15.13;;;9.90;99.90;;;;;;5055446;28;20017;-69
2022/10/12 05:33:43;;;;;;;35.25;16.50;;;9.80;99.90;;;;;;5056029;28;20028;-69
2022/10/12 05:36:09;;;;;;;62.58;19.13;;;9.80;99.90;;;;;;5056008;28;20052;-69
2022/10/12 05:38:34;;;;;;;43.53;17.02;;;9.70;99.90;;;;;;5055749;28;20435;-69
2022/10/12 05:41:00;;;;;;;45.80;17.05;;;9.60;99.90;;;;;;5055745;28;20036;-69
2022/10/12 05:43:25;;;;;;;41.40;15.68;;;9.60;99.90;;;;;;5054067;28;20052;-69
2022/10/12 05:45:51;;;;;;;44.88;17.20;;;9.50;99.90;;;;;;5055651;28;20100;-69
2022/10/12 05:48:17;;;;;;;49.25;16.55;;;9.40;99.90;;;;;;5055799;28;20037;-69
2022/10/12 05:50:42;;;;;;;41.15;15.55;;;9.30;99.90;;;;;;5055838;28;20033;-69
2022/10/12 05:53:08;;;;;;;36.60;15.20;;;9.30;99.90;;;;;;5055483;28;20025;-69
2022/10/12 05:55:33;;;;;;;34.33;16.15;;;9.30;99.90;;;;;;5054894;28;20037;-69
2022/10/12 05:57:59;;;;;;;47.42;16.02;;;9.20;99.90;;;;;;5055600;28;20025;-69
2022/10/12 06:00:24;;;;;;;40.38;16.08;;;9.20;99.90;;;;;;5055338;28;20047;-69
2022/10/12 06:02:50;;;;;;;39.78;16.10;;;9.10;99.90;;;;;;5055596;28;20047;-70
2022/10/12 06:05:16;;;;;;;40.90;17.23;;;9.10;99.90;;;;;;5054729;28;20078;-70
2022/10/12 06:07:42;;;;;;;59.92;19.80;;;9.10;99.90;;;;;;5054057;28;20116;-70
2022/10/12 06:10:08;;;;;;;47.92;17.88;;;9.10;99.90;;;;;;5055132;28;20029;-70
2022/10/12 06:12:33;;;;;;;36.47;15.85;;;9.10;99.90;;;;;;5055261;28;20028;-70
2022/10/12 06:14:59;;;;;;;45.58;16.95;;;9.10;99.90;;;;;;5054953;28;20017;-70
2022/10/12 06:17:25;;;;;;;43.20;17.08;;;9.10;99.90;;;;;;5054755;28;20033;-70
2022/10/12 06:19:50;;;;;;;56.97;19.05;;;9.00;99.90;;;;;;5055153;28;20017;-70
2022/10/12 06:22:16;;;;;;;33.72;17.52;;;9.10;99.90;;;;;;5055000;28;20032;-70
2022/10/12 06:24:41;;;;;;;36.03;15.05;;;9.00;99.90;;;;;;5054859;28;20028;-70
2022/10/12 06:27:07;;;;;;;38.47;15.98;;;8.90;99.90;;;;;;5054316;28;20036;-70
2022/10/12 06:29:32;;;;;;;51.85;18.58;;;8.90;99.90;;;;;;5055338;28;20033;-70
2022/10/12 06:31:58;;;;;;;29.83;16.83;;;8.80;99.90;;;;;;5054998;28;20100;-70
2022/10/12 06:34:23;;;;;;;40.53;17.27;;;8.80;99.90;;;;;;5054699;28;20013;-70
2022/10/12 06:36:49;;;;;;;53.45;17.67;;;8.90;99.90;;;;;;5054691;28;20029;-70
2022/10/12 06:39:14;;;;;;;47.38;16.70;;;8.80;99.90;;;;;;5054213;28;20076;-70
2022/10/12 06:41:40;;;;;;;58.35;17.73;;;8.80;99.90;;;;;;5054591;28;20469;-70
2022/10/12 06:44:07;;;;;;;35.47;15.85;;;8.80;99.90;;;;;;5054581;28;20029;-70
2022/10/12 06:46:32;;;;;;;57.55;16.58;;;8.80;99.90;;;;;;5054571;28;20040;-70
2022/10/12 06:48:58;;;;;;;49.72;16.90;;;8.80;99.90;;;;;;5053921;28;20021;-70
2022/10/12 06:51:23;;;;;;;39.15;15.35;;;8.90;99.90;;;;;;5054745;28;20029;-70
2022/10/12 06:53:49;;;;;;;57.38;16.33;;;8.90;99.90;;;;;;5054336;28;20029;-71
2022/10/12 06:56:15;;;;;;;51.55;16.35;;;8.90;99.90;;;;;;5054582;28;20092;-70
2022/10/12 07:08:31;;;;;;;43.55;16.52;;;9.10;99.90;;;;;;5033130;28;20046;-80
2022/10/12 07:11:01;;;;;;;54.65;16.05;;;9.20;99.90;;;;;;5033039;28;20028;-79
2022/10/12 07:13:27;;;;;;;53.70;17.30;;;9.30;99.90;;;;;;5034254;28;20028;-80
2022/10/12 07:15:52;;;;;;;38.22;16.08;;;9.30;99.90;;;;;;5033012;28;20022;-79
2022/10/12 07:18:18;;;;;;;66.68;17.52;;;9.40;99.90;;;;;;5033596;28;20029;-80
2022/10/12 07:20:43;;;;;;;43.20;16.10;;;9.50;99.90;;;;;;5034316;28;20040;-80
2022/10/12 07:23:09;;;;;;;51.30;15.70;;;9.50;99.90;;;;;;5034914;28;20083;-81
2022/10/12 07:25:34;;;;;;;36.10;13.95;;;9.60;99.90;;;;;;5032924;28;20226;-80
2022/10/12 07:28:01;;;;;;;39.67;15.27;;;9.70;99.90;;;;;;5033669;28;20025;-80
2022/10/12 07:30:27;;;;;;;51.55;16.20;;;9.80;99.90;;;;;;5034232;28;20041;-81
2022/10/12 07:32:53;;;;;;;48.70;16.35;;;9.90;99.90;;;;;;5033236;28;20026;-80
2022/10/12 07:35:18;;;;;;;55.97;15.55;;;10.00;99.90;;;;;;5034528;28;20080;-80
2022/10/12 07:37:47;;;;;;;61.60;15.65;;;10.10;99.90;;;;;;5032822;28;20103;-80
2022/10/12 07:40:12;;;;;;;52.53;14.55;;;10.30;99.90;;;;;;5032055;28;20029;-79
2022/10/12 07:42:38;;;;;;;39.10;13.90;;;10.30;99.90;;;;;;5034093;28;20029;-79
2022/10/12 07:45:03;;;;;;;38.03;12.43;;;10.40;99.90;;;;;;5033958;28;20029;-80
2022/10/12 07:47:29;;;;;;;35.08;12.75;;;10.30;99.90;;;;;;5034339;28;20034;-80
2022/10/12 07:49:54;;;;;;;42.33;13.07;;;10.40;99.90;;;;;;5033766;28;20476;-81
2022/10/12 07:52:20;;;;;;;44.60;13.40;;;10.40;99.90;;;;;;5031913;28;20075;-81
2022/10/12 07:54:46;;;;;;;43.05;12.73;;;10.60;99.90;;;;;;5032544;28;20075;-80
2022/10/12 07:57:11;;;;;;;36.90;12.23;;;10.80;99.90;;;;;;5033071;28;20022;-80
2022/10/12 07:59:37;;;;;;;39.47;11.85;;;11.00;99.90;;;;;;5032527;28;20029;-81
2022/10/12 08:02:02;;;;;;;35.90;10.60;;;11.10;99.90;;;;;;5032491;28;20030;-80
2022/10/12 08:04:28;;;;;;;43.67;10.70;;;11.20;99.90;;;;;;5031774;28;20030;-80
2022/10/12 08:06:54;;;;;;;22.02;9.05;;;11.20;99.90;;;;;;5033290;28;20057;-80
2022/10/12 08:09:19;;;;;;;36.25;10.25;;;11.40;99.90;;;;;;5032265;28;20025;-80
2022/10/12 08:11:45;;;;;;;32.35;8.85;;;11.70;99.90;;;;;;5033444;28;20033;-80
2022/10/12 08:14:15;;;;;;;29.42;9.50;;;11.90;99.90;;;;;;5033204;28;20021;-80
2022/10/12 08:16:42;;;;;;;41.45;9.23;;;12.10;99.90;;;;;;5033755;28;20030;-80
2022/10/12 08:19:08;;;;;;;28.90;7.95;;;12.20;99.90;;;;;;5033363;28;20036;-80
2022/10/12 08:21:33;;;;;;;33.88;6.07;;;12.20;99.90;;;;;;5033450;28;20384;-80
2022/10/12 08:23:59;;;;;;;21.33;5.65;;;12.10;99.90;;;;;;5033192;28;20058;-81
2022/10/12 08:34:13;;;;;;;24.70;5.15;;;12.50;99.90;;;;;;5583951;22;20045;-71
2022/10/12 08:36:38;;;;;;;25.17;5.10;;;12.80;99.90;;;;;;5035133;28;20037;-70
2022/10/12 08:39:05;;;;;;;24.92;3.90;;;12.70;99.90;;;;;;5036813;28;20377;-71
2022/10/12 08:41:51;;;;;;;20.98;3.80;;;12.90;99.90;;;;;;5037091;28;20119;-71
2022/10/12 08:44:47;;;;;;;12.00;3.92;;;13.10;99.90;;;;;;5015715;28;20053;-71
2022/10/12 08:47:23;;;;;;;21.45;3.90;;;13.50;99.90;;;;;;5035456;28;20044;-72
2022/10/12 08:49:49;;;;;;;17.35;4.22;;;13.80;99.90;;;;;;5036709;28;20036;-70
2022/10/12 08:52:36;;;;;;;24.15;4.05;;;14.10;99.90;;;;;;5036086;28;20026;-70
2022/10/12 08:55:27;;;;;;;14.73;3.72;;;14.20;99.90;;;;;;5036727;28;20538;-70
2022/10/12 08:57:53;;;;;;;20.67;3.30;;;14.40;99.90;;;;;;5036783;28;20476;-71
2022/10/12 09:00:18;;;;;;;15.52;3.03;;;14.50;99.90;;;;;;5036600;28;20047;-71
2022/10/12 09:03:29;;;;;;;10.05;2.83;;;14.40;99.90;;;;;;5034664;28;20025;-70
2022/10/12 09:06:06;;;;;;;17.00;3.20;;;14.50;99.90;;;;;;5012378;28;20040;-71
2022/10/12 09:09:01;;;;;;;20.25;2.75;;;14.60;99.90;;;;;;5036517;28;20091;-71
2022/10/12 09:11:36;;;;;;;17.20;3.08;;;14.60;99.90;;;;;;5036307;28;20068;-71
2022/10/12 09:14:10;;;;;;;17.58;3.38;;;14.40;99.90;;;;;;5036361;28;20643;-70
2022/10/12 09:16:41;;;;;;;24.02;3.42;;;14.20;99.90;;;;;;5035806;28;20017;-70
2022/10/12 09:19:16;;;;;;;22.63;3.45;;;14.10;99.90;;;;;;5036343;28;20394;-70
2022/10/12 09:21:44;;;;;;;22.48;3.72;;;14.00;99.90;;;;;;5035031;28;20457;-71
2022/10/12 09:24:16;;;;;;;17.42;3.30;;;13.80;99.90;;;;;;5035880;28;20022;-71
2022/10/12 09:26:44;;;;;;;12.40;2.35;;;13.80;99.90;;;;;;5035780;28;20025;-70
2022/10/12 09:29:47;;;;;;;11.35;2.38;;;13.70;99.90;;;;;;5035796;28;20021;-71
2022/10/12 09:32:28;;;;;;;19.13;2.85;;;13.70;99.90;;;;;;5004051;28;20057;-71
2022/10/12 09:34:54;;;;;;;15.85;2.95;;;13.70;99.90;;;;;;5035656;28;20079;-70
2022/10/12 09:37:29;;;;;;;17.08;2.90;;;13.60;99.90;;;;;;5035722;28;20026;-71
2022/10/12 09:39:55;;;;;;;20.88;4.10;;;13.60;99.90;;;;;;5035139;28;20025;-70
2022/10/12 09:42:21;;;;;;;20.20;3.35;;;13.60;99.90;;;;;;5035484;28;20064;-71
2022/10/12 09:45:00;;;;;;;12.48;3.97;;;13.70;99.90;;;;;;5035576;28;20057;-71
2022/10/12 09:47:28;;;;;;;23.48;3.30;;;14.00;99.90;;;;;;5034220;28;20033;-71
2022/10/12 09:50:03;;;;;;;18.33;3.88;;;14.20;99.90;;;;;;5033757;28;20113;-71
2022/10/12 09:52:41;;;;;;;14.90;2.83;;;14.40;99.90;;;;;;5034119;28;20024;-71
2022/10/12 09:55:24;;;;;;;14.20;3.38;;;14.50;99.90;;;;;;5034116;28;20091;-71
2022/10/12 09:57:58;;;;;;;25.25;4.50;;;14.70;99.90;;;;;;5035390;28;20104;-71
2022/10/12 10:00:28;;;;;;;16.98;3.40;;;14.60;99.90;;;;;;5034045;28;20087;-71
2022/10/12 10:02:55;;;;;;;23.40;3.65;;;14.80;99.90;;;;;;5035262;28;20036;-72
2022/10/12 10:05:33;;;;;;;18.58;3.40;;;14.60;99.90;;;;;;5034664;28;20033;-71
2022/10/12 10:08:13;;;;;;;20.20;3.90;;;14.40;99.90;;;;;;5032664;28;20021;-70
2022/10/12 10:11:13;;;;;;;18.25;3.53;;;14.30;99.90;;;;;;5015342;28;20030;-71
2022/10/12 10:13:53;;;;;;;28.75;4.35;;;14.20;99.90;;;;;;5014581;28;20508;-70
2022/10/12 10:16:22;;;;;;;16.70;2.88;;;14.10;99.90;;;;;;5013963;28;20427;-71
2022/10/12 10:18:55;;;;;;;20.45;4.25;;;14.30;99.90;;;;;;5013430;28;20485;-71
2022/10/12 10:21:33;;;;;;;22.00;4.88;;;14.40;99.90;;;;;;5020877;28;20061;-71
2022/10/12 10:24:04;;;;;;;26.40;4.25;;;14.40;99.90;;;;;;5034351;28;20056;-70
2022/10/12 10:26:54;;;;;;;22.55;3.88;;;14.50;99.90;;;;;;5034610;28;20025;-71
2022/10/12 10:29:38;;;;;;;14.00;3.33;;;14.60;99.90;;;;;;5034653;28;20028;-71
2022/10/12 10:32:30;;;;;;;17.10;3.95;;;14.60;99.90;;;;;;5021799;28;20029;-71
2022/10/12 10:35:11;;;;;;;27.92;4.30;;;14.50;99.90;;;;;;5014779;28;20117;-71
2022/10/12 10:37:45;;;;;;;17.73;3.42;;;14.60;99.90;;;;;;5014849;28;20026;-71
2022/10/12 10:40:25;;;;;;;19.80;4.75;;;14.60;99.90;;;;;;5030451;28;20025;-71
2022/10/12 10:42:55;;;;;;;18.00;3.92;;;14.50;99.90;;;;;;5034275;28;20053;-70
2022/10/12 10:45:41;;;;;;;16.83;3.80;;;14.50;99.90;;;;;;5034433;28;20056;-71
2022/10/12 10:48:09;;;;;;;22.02;3.83;;;14.60;99.90;;;;;;5034660;28;20045;-71
2022/10/12 10:50:39;;;;;;;28.13;4.05;;;14.40;99.90;;;;;;5022408;28;20096;-71
2022/10/12 10:53:17;;;;;;;21.85;3.95;;;14.50;99.90;;;;;;5015202;28;20424;-70
2022/10/12 10:56:10;;;;;;;20.63;3.97;;;14.60;99.90;;;;;;5020642;28;20021;-71
2022/10/12 10:58:35;;;;;;;17.55;4.15;;;14.80;99.90;;;;;;5014495;28;20022;-71
2022/10/12 11:01:13;;;;;;;22.42;4.40;;;15.10;99.90;;;;;;5014410;28;20033;-71
2022/10/12 11:03:44;;;;;;;20.17;4.65;;;15.10;99.90;;;;;;5014288;28;20030;-71
2022/10/12 11:06:34;;;;;;;17.17;3.40;;;15.30;99.90;;;;;;5014156;28;20088;-71
2022/10/12 11:09:28;;;;;;;22.77;4.88;;;15.30;99.90;;;;;;5022417;28;20033;-71
2022/10/12 11:12:00;;;;;;;20.95;3.72;;;15.60;99.90;;;;;;5034025;28;20059;-71
2022/10/12 11:14:39;;;;;;;17.95;3.78;;;16.00;99.90;;;;;;5025645;28;20523;-71
2022/10/12 11:17:09;;;;;;;19.38;4.22;;;16.30;99.90;;;;;;5013764;28;20037;-71
2022/10/12 11:19:41;;;;;;;12.05;3.97;;;16.20;99.90;;;;;;5019487;28;20022;-71
2022/10/12 11:22:31;;;;;;;25.58;5.25;;;16.30;99.90;;;;;;5033796;28;20025;-73
2022/10/12 11:25:09;;;;;;;16.35;3.70;;;16.10;99.90;;;;;;5029806;28;20030;-71
2022/10/12 11:27:37;;;;;;;23.63;5.22;;;16.30;99.90;;;;;;5033691;28;20052;-72
2022/10/12 11:30:12;;;;;;;25.02;4.03;;;16.60;99.90;;;;;;5033224;28;20070;-71
2022/10/12 11:32:42;;;;;;;16.67;3.30;;;17.10;99.90;;;;;;5013886;28;20061;-71
2022/10/12 11:35:14;;;;;;;15.68;2.75;;;16.90;99.90;;;;;;5013192;28;20095;-71
2022/10/12 11:38:08;;;;;;;19.77;3.30;;;16.60;99.90;;;;;;5030643;28;20022;-71
2022/10/12 11:40:44;;;;;;;16.83;2.97;;;16.50;99.90;;;;;;5017171;28;20049;-71
2022/10/12 11:43:17;;;;;;;22.35;3.88;;;16.50;99.90;;;;;;5013639;28;20393;-72
2022/10/12 11:45:46;;;;;;;19.00;3.55;;;16.70;99.90;;;;;;5016966;28;20115;-71
2022/10/12 11:48:21;;;;;;;17.98;3.47;;;16.80;99.90;;;;;;5013900;28;20077;-71
2022/10/12 11:50:49;;;;;;;18.45;3.20;;;17.00;99.90;;;;;;5019915;28;20033;-71
2022/10/12 11:53:50;;;;;;;15.23;2.80;;;16.90;99.90;;;;;;5033539;28;20044;-71
2022/10/12 11:56:23;;;;;;;28.20;4.25;;;17.30;99.90;;;;;;5033172;28;20021;-71
2022/10/12 11:58:52;;;;;;;20.98;3.50;;;17.20;99.90;;;;;;5033533;28;20034;-71
2022/10/12 12:01:39;;;;;;;21.58;3.45;;;17.20;99.90;;;;;;5033038;28;20037;-71
2022/10/12 12:04:16;;;;;;;15.40;3.47;;;17.40;99.90;;;;;;5032453;28;20064;-71
2022/10/12 12:07:04;;;;;;;17.42;2.90;;;17.40;99.90;;;;;;5030833;28;20029;-71
2022/10/12 12:09:36;;;;;;;13.82;3.15;;;17.60;99.90;;;;;;5023914;28;20113;-71
2022/10/12 12:12:17;;;;;;;15.63;4.50;;;17.60;99.90;;;;;;5033409;28;20021;-71
2022/10/12 12:14:52;;;;;;;21.25;4.20;;;17.80;99.90;;;;;;5028059;28;20022;-71
2022/10/12 12:17:17;;;;;;;18.80;3.85;;;18.10;99.90;;;;;;5023262;28;20556;-71
2022/10/12 12:19:44;;;;;;;20.33;3.08;;;18.20;99.90;;;;;;5033056;28;20038;-71
2022/10/12 12:22:29;;;;;;;14.60;3.58;;;18.00;99.90;;;;;;5033372;28;20061;-71
2022/10/12 12:24:57;;;;;;;14.38;3.65;;;18.00;99.90;;;;;;5031490;28;20032;-70
2022/10/12 12:27:45;;;;;;;24.67;4.15;;;18.20;99.90;;;;;;5012686;28;20026;-71
2022/10/12 12:30:14;;;;;;;17.05;3.45;;;18.00;99.90;;;;;;5014480;28;20026;-71
2022/10/12 12:32:48;;;;;;;23.40;3.80;;;18.10;99.90;;;;;;5032969;28;20022;-71
2022/10/12 12:35:29;;;;;;;29.10;4.97;;;18.40;99.90;;;;;;5031505;28;20493;-71
2022/10/12 12:38:02;;;;;;;15.13;4.03;;;18.10;99.90;;;;;;5016846;28;20093;-71
2022/10/12 12:40:28;;;;;;;20.80;2.97;;;17.70;99.90;;;;;;5013180;28;20030;-71
2022/10/12 12:43:32;;;;;;;12.57;2.58;;;17.50;99.90;;;;;;5026056;28;20117;-71
2022/10/12 12:46:07;;;;;;;17.30;2.90;;;17.20;99.90;;;;;;5033158;28;20025;-71
2022/10/12 12:48:39;;;;;;;20.63;3.08;;;17.20;99.90;;;;;;5020244;28;20046;-71
2022/10/12 12:51:08;;;;;;;23.38;4.53;;;17.50;99.90;;;;;;5013406;28;20431;-71
2022/10/12 12:53:37;;;;;;;17.42;2.65;;;17.50;99.90;;;;;;5014692;28;20022;-71
2022/10/12 12:56:21;;;;;;;12.40;2.85;;;17.60;99.90;;;;;;5012988;28;20049;-71
2022/10/12 12:59:16;;;;;;;15.38;3.38;;;17.60;99.90;;;;;;5021537;28;20030;-71
2022/10/12 13:01:44;;;;;;;20.27;4.28;;;17.30;99.90;;;;;;5033003;28;20033;-71
2022/10/12 13:04:29;;;;;;;15.23;2.83;;;16.90;99.90;;;;;;5025669;28;20068;-70
2022/10/12 13:07:22;;;;;;;16.27;3.50;;;16.70;99.90;;;;;;5013198;28;20100;-72
2022/10/12 13:10:07;;;;;;;19.35;3.95;;;16.60;99.90;;;;;;5020826;28;20034;-71
2022/10/12 13:13:15;;;;;;;17.92;3.72;;;16.60;99.90;;;;;;5028064;28;20029;-71
2022/10/12 13:15:46;;;;;;;22.80;3.70;;;17.70;99.90;;;;;;5012635;28;20434;-71
2022/10/12 13:18:23;;;;;;;15.40;3.00;;;18.50;99.90;;;;;;5020170;28;20503;-71